createdAt,value
2023-05-21T00:01:07.825Z,1.87
2023-05-21T00:03:36.567Z,1.87
2023-05-21T00:06:04.099Z,2.13
2023-05-21T00:08:31.309Z,2.40
2023-05-21T00:10:58.345Z,2.10
2023-05-21T00:13:25.044Z,1.97
2023-05-21T00:15:52.107Z,2.00
2023-05-21T00:18:18.906Z,2.00
2023-05-21T00:20:45.935Z,2.33
2023-05-21T00:23:13.041Z,1.93
2023-05-21T00:25:39.775Z,1.87
2023-05-21T00:28:06.599Z,1.90
2023-05-21T00:30:33.269Z,1.93
2023-05-21T00:33:03.123Z,2.23
2023-05-21T00:35:30.082Z,2.00
2023-05-21T00:37:57.523Z,2.17
2023-05-21T00:40:24.200Z,2.03
2023-05-21T00:42:50.922Z,2.03
2023-05-21T00:45:17.622Z,2.23
2023-05-21T00:47:45.132Z,2.00
2023-05-21T00:50:31.296Z,2.10
2023-05-21T00:52:59.916Z,2.10
2023-05-21T00:55:26.909Z,2.17
2023-05-21T00:57:53.710Z,2.10
2023-05-21T01:00:21.428Z,1.50
2023-05-21T01:02:48.606Z,1.90
2023-05-21T01:05:15.881Z,1.93
2023-05-21T01:07:43.609Z,1.80
2023-05-21T01:10:11.643Z,2.23
2023-05-21T01:12:39.758Z,2.07
2023-05-21T01:15:07.312Z,2.00
2023-05-21T01:17:34.512Z,1.77
2023-05-21T01:20:01.927Z,1.70
2023-05-21T01:22:32.745Z,2.23
2023-05-21T01:25:02.960Z,2.00
2023-05-21T01:27:30.084Z,1.80
2023-05-21T01:29:57.616Z,1.90
2023-05-21T01:33:02.894Z,2.23
2023-05-21T01:35:34.170Z,2.33
2023-05-21T01:38:35.430Z,1.93
2023-05-21T01:41:08.196Z,1.63
2023-05-21T01:43:39.469Z,2.40
2023-05-21T01:46:09.816Z,2.33
2023-05-21T01:48:36.824Z,2.00
2023-05-21T01:51:05.096Z,2.60
2023-05-21T01:53:32.374Z,1.90
2023-05-21T01:55:59.492Z,2.23
2023-05-21T01:58:26.282Z,1.70
2023-05-21T02:00:52.971Z,2.00
2023-05-21T02:03:21.012Z,1.80
2023-05-21T02:05:47.805Z,1.70
2023-05-21T02:08:15.473Z,2.00
2023-05-21T02:10:42.281Z,2.00
2023-05-21T02:13:08.894Z,1.90
2023-05-21T02:15:35.798Z,2.00
2023-05-21T02:18:03.681Z,2.30
2023-05-21T02:20:31.196Z,2.53
2023-05-21T02:22:57.934Z,2.77
2023-05-21T02:25:24.745Z,2.33
2023-05-21T02:27:56.899Z,3.73
2023-05-21T02:30:23.842Z,2.57
2023-05-21T02:32:50.916Z,1.93
2023-05-21T02:35:17.825Z,1.97
2023-05-21T02:37:44.667Z,2.13
2023-05-21T02:40:11.730Z,2.13
2023-05-21T02:42:40.439Z,2.90
2023-05-21T02:45:11.979Z,6.57
2023-05-21T02:47:39.039Z,2.50
2023-05-21T02:50:09.035Z,1.70
2023-05-21T02:52:35.796Z,2.33
2023-05-21T02:55:02.623Z,1.87
2023-05-21T02:57:29.227Z,2.07
2023-05-21T02:59:55.845Z,2.67
2023-05-21T03:02:22.740Z,2.27
2023-05-21T03:04:51.032Z,2.43
2023-05-21T03:07:20.732Z,2.43
2023-05-21T03:09:47.428Z,2.50
2023-05-21T03:12:14.141Z,2.27
2023-05-21T03:14:42.811Z,2.70
2023-05-21T03:17:14.115Z,2.33
2023-05-21T03:19:42.334Z,2.30
2023-05-21T03:22:09.071Z,2.50
2023-05-21T03:24:36.971Z,3.00
2023-05-21T03:27:06.813Z,2.60
2023-05-21T03:29:34.178Z,2.70
2023-05-21T03:32:01.621Z,2.60
2023-05-21T03:34:28.283Z,2.43
2023-05-21T03:36:54.942Z,2.67
2023-05-21T03:39:21.652Z,3.17
2023-05-21T03:41:48.261Z,2.67
2023-05-21T03:44:14.829Z,2.83
2023-05-21T03:46:41.556Z,2.20
2023-05-21T03:49:08.209Z,2.53
2023-05-21T03:51:34.885Z,2.60
2023-05-21T03:54:01.764Z,2.50
2023-05-21T03:56:28.485Z,2.80
2023-05-21T03:58:55.174Z,2.20
2023-05-21T04:01:22.162Z,2.47
2023-05-21T04:03:48.906Z,2.43
2023-05-21T04:06:16.138Z,2.97
2023-05-21T04:08:42.928Z,3.07
2023-05-21T04:11:09.562Z,2.27
2023-05-21T04:13:36.469Z,2.70
2023-05-21T04:16:03.198Z,2.30
2023-05-21T04:18:29.849Z,2.60
2023-05-21T04:20:56.614Z,4.53
2023-05-21T04:23:23.972Z,3.53
2023-05-21T04:25:51.161Z,2.80
2023-05-21T04:28:20.369Z,3.20
2023-05-21T04:30:47.972Z,2.67
2023-05-21T04:33:18.579Z,2.73
2023-05-21T04:35:47.493Z,2.60
2023-05-21T04:38:14.299Z,2.67
2023-05-21T04:40:40.989Z,3.17
2023-05-21T04:43:09.140Z,2.97
2023-05-21T04:45:36.111Z,3.10
2023-05-21T04:48:03.098Z,2.90
2023-05-21T04:50:31.014Z,2.97
2023-05-21T04:52:59.784Z,2.60
2023-05-21T04:55:27.631Z,3.27
2023-05-21T04:57:54.295Z,2.67
2023-05-21T05:00:21.828Z,2.80
2023-05-21T05:02:48.593Z,2.30
2023-05-21T05:05:15.266Z,3.27
2023-05-21T05:07:41.996Z,2.47
2023-05-21T05:10:08.824Z,2.77
2023-05-21T05:12:35.410Z,2.90
2023-05-21T05:15:02.087Z,2.73
2023-05-21T05:17:28.813Z,2.90
2023-05-21T05:19:55.462Z,2.43
2023-05-21T05:22:22.053Z,2.97
2023-05-21T05:24:48.731Z,2.83
2023-05-21T05:27:15.349Z,3.60
2023-05-21T05:29:41.931Z,4.83
2023-05-21T05:32:08.984Z,3.90
2023-05-21T05:34:35.641Z,3.73
2023-05-21T05:37:03.070Z,3.53
2023-05-21T05:39:29.837Z,3.10
2023-05-21T05:41:56.782Z,2.90
2023-05-21T05:44:23.393Z,3.67
2023-05-21T05:46:50.005Z,3.27
2023-05-21T05:49:16.986Z,2.80
2023-05-21T05:51:43.638Z,3.30
2023-05-21T05:54:10.474Z,3.10
2023-05-21T05:56:37.037Z,3.23
2023-05-21T05:59:03.725Z,3.17
2023-05-21T06:01:32.273Z,2.80
2023-05-21T06:03:58.927Z,3.03
2023-05-21T06:06:25.587Z,3.03
2023-05-21T06:08:52.294Z,14.30
2023-05-21T06:11:19.365Z,4.30
2023-05-21T06:13:46.117Z,3.30
2023-05-21T06:16:13.055Z,2.37
2023-05-21T06:18:39.766Z,3.20
2023-05-21T06:21:06.453Z,3.70
2023-05-21T06:23:33.103Z,3.57
2023-05-21T06:25:59.833Z,3.93
2023-05-21T06:28:26.606Z,3.30
2023-05-21T06:30:53.281Z,3.23
2023-05-21T06:33:20.218Z,3.20
2023-05-21T06:35:47.174Z,3.90
2023-05-21T06:38:13.863Z,3.70
2023-05-21T06:40:40.676Z,4.00
2023-05-21T06:43:07.339Z,3.63
2023-05-21T06:45:34.191Z,3.13
2023-05-21T06:48:01.138Z,3.27
2023-05-21T06:50:27.800Z,4.17
2023-05-21T06:52:54.490Z,4.03
2023-05-21T06:55:21.443Z,5.77
2023-05-21T06:57:48.103Z,14.17
2023-05-21T07:00:15.123Z,4.57
2023-05-21T07:02:41.872Z,3.83
2023-05-21T07:05:09.034Z,4.67
2023-05-21T07:07:35.732Z,4.40
2023-05-21T07:10:02.525Z,4.43
2023-05-21T07:12:29.175Z,8.63
2023-05-21T07:14:57.569Z,9.33
2023-05-21T07:17:25.865Z,4.40
2023-05-21T07:19:52.603Z,4.27
2023-05-21T07:22:19.266Z,4.17
2023-05-21T07:24:48.975Z,4.37
2023-05-21T07:27:25.412Z,4.53
2023-05-21T07:29:52.952Z,4.40
2023-05-21T07:32:19.561Z,4.90
2023-05-21T07:34:47.222Z,5.40
2023-05-21T07:37:14.227Z,4.63
2023-05-21T07:39:41.091Z,4.70
2023-05-21T07:42:07.759Z,4.90
2023-05-21T07:44:34.369Z,4.70
2023-05-21T07:47:00.985Z,5.47
2023-05-21T07:49:27.560Z,6.20
2023-05-21T07:51:54.282Z,5.67
2023-05-21T07:54:21.352Z,5.07
2023-05-21T07:56:47.975Z,5.97
2023-05-21T07:59:17.200Z,5.90
2023-05-21T08:01:44.415Z,5.63
2023-05-21T08:04:11.365Z,5.03
2023-05-21T08:06:38.203Z,5.60
2023-05-21T08:09:06.378Z,5.17
2023-05-21T08:11:33.362Z,5.60
2023-05-21T08:14:00.309Z,5.90
2023-05-21T08:16:27.220Z,5.93
2023-05-21T08:18:54.051Z,5.80
2023-05-21T08:21:20.971Z,5.90
2023-05-21T08:23:47.732Z,6.00
2023-05-21T08:26:16.660Z,6.03
2023-05-21T08:28:43.818Z,6.10
2023-05-21T08:31:10.965Z,5.80
2023-05-21T08:33:38.750Z,6.70
2023-05-21T08:36:06.827Z,6.60
2023-05-21T08:38:34.941Z,6.53
2023-05-21T08:41:01.679Z,6.53
2023-05-21T08:43:29.422Z,6.33
2023-05-21T08:45:59.286Z,9.60
2023-05-21T08:48:26.440Z,7.00
2023-05-21T08:50:54.970Z,6.87
2023-05-21T08:53:28.696Z,6.53
2023-05-21T08:55:56.420Z,7.23
2023-05-21T08:58:23.486Z,7.53
2023-05-21T09:00:50.251Z,6.40
2023-05-21T09:03:17.322Z,6.47
2023-05-21T09:05:45.273Z,6.22
2023-05-21T09:08:19.054Z,6.10
2023-05-21T09:10:51.435Z,6.07
2023-05-21T09:13:19.435Z,7.13
2023-05-21T09:15:47.203Z,6.25
2023-05-21T09:18:15.079Z,7.05
2023-05-21T09:20:42.286Z,7.15
2023-05-21T09:23:16.991Z,6.10
2023-05-21T09:25:48.731Z,6.50
2023-05-21T09:28:17.331Z,7.20
2023-05-21T09:30:54.437Z,7.78
2023-05-21T09:33:29.527Z,6.70
2023-05-21T09:35:56.774Z,7.13
2023-05-21T09:38:24.191Z,5.78
2023-05-21T09:40:51.049Z,6.90
2023-05-21T09:43:18.013Z,6.55
2023-05-21T09:45:59.707Z,7.50
2023-05-21T09:48:35.448Z,6.40
2023-05-21T09:51:09.543Z,7.18
2023-05-21T09:53:36.771Z,7.22
2023-05-21T09:56:04.058Z,7.18
2023-05-21T09:58:31.144Z,7.60
2023-05-21T10:00:59.010Z,7.10
2023-05-21T10:03:28.593Z,6.88
2023-05-21T10:05:55.549Z,7.25
2023-05-21T10:08:25.564Z,7.15
2023-05-21T10:10:52.245Z,7.70
2023-05-21T10:13:23.554Z,8.43
2023-05-21T10:15:55.799Z,7.10
2023-05-21T10:18:23.687Z,7.03
2023-05-21T10:20:51.551Z,7.50
2023-05-21T10:23:19.222Z,7.80
2023-05-21T10:25:46.738Z,7.13
2023-05-21T10:28:16.673Z,6.80
2023-05-21T10:30:44.654Z,8.20
2023-05-21T10:33:15.680Z,6.85
2023-05-21T10:35:42.932Z,6.80
2023-05-21T10:38:10.057Z,6.82
2023-05-21T10:40:37.098Z,6.43
2023-05-21T10:43:36.016Z,6.55
2023-05-21T10:46:32.544Z,6.82
2023-05-21T10:49:30.173Z,6.10
2023-05-21T10:52:00.633Z,5.60
2023-05-21T10:54:43.819Z,9.80
2023-05-21T10:57:40.293Z,5.50
2023-05-21T11:00:09.760Z,5.15
2023-05-21T11:02:37.112Z,6.13
2023-05-21T11:05:04.727Z,5.50
2023-05-21T11:07:56.900Z,5.32
2023-05-21T11:10:40.877Z,5.53
2023-05-21T11:13:12.994Z,4.40
2023-05-21T11:15:58.183Z,5.20
2023-05-21T11:18:47.662Z,4.50
2023-05-21T11:21:17.249Z,4.43
2023-05-21T11:23:54.747Z,4.50
2023-05-21T11:26:23.251Z,3.83
2023-05-21T11:29:05.218Z,4.25
2023-05-21T11:31:39.622Z,4.63
2023-05-21T11:34:14.274Z,5.03
2023-05-21T11:36:44.199Z,4.55
2023-05-21T11:39:12.709Z,4.35
2023-05-21T11:42:04.440Z,4.13
2023-05-21T11:44:42.128Z,4.50
2023-05-21T11:47:10.799Z,4.90
2023-05-21T11:49:38.603Z,4.75
2023-05-21T11:52:07.575Z,4.82
2023-05-21T11:54:40.304Z,4.35
2023-05-21T11:57:08.241Z,4.57
2023-05-21T11:59:35.664Z,4.55
2023-05-21T12:02:03.685Z,4.82
2023-05-21T12:04:31.659Z,4.30
2023-05-21T12:06:58.826Z,4.25
2023-05-21T12:09:25.764Z,4.70
2023-05-21T12:11:53.488Z,4.38
2023-05-21T12:14:21.739Z,4.10
2023-05-21T12:16:48.632Z,4.05
2023-05-21T12:19:18.134Z,4.20
2023-05-21T12:21:45.321Z,4.80
2023-05-21T12:24:11.981Z,4.65
2023-05-21T12:26:38.941Z,4.60
2023-05-21T12:29:05.981Z,5.03
2023-05-21T12:31:33.129Z,5.93
2023-05-21T12:34:02.411Z,4.90
2023-05-21T12:36:32.137Z,5.18
2023-05-21T12:38:58.918Z,4.68
2023-05-21T12:41:26.704Z,5.07
2023-05-21T12:43:53.417Z,5.50
2023-05-21T12:46:23.733Z,8.07
2023-05-21T12:48:54.849Z,5.25
2023-05-21T12:51:21.694Z,5.47
2023-05-21T12:53:48.771Z,5.65
2023-05-21T12:56:16.291Z,5.80
2023-05-21T12:58:49.599Z,6.03
2023-05-21T13:01:16.391Z,6.13
2023-05-21T13:03:43.381Z,6.20
2023-05-21T13:06:10.050Z,6.80
2023-05-21T13:08:36.717Z,6.45
2023-05-21T13:11:04.043Z,6.20
2023-05-21T13:13:30.975Z,5.63
2023-05-21T13:15:57.717Z,5.53
2023-05-21T13:18:24.440Z,5.93
2023-05-21T13:20:51.971Z,5.82
2023-05-21T13:23:18.679Z,5.43
2023-05-21T13:25:45.776Z,6.10
2023-05-21T13:28:15.222Z,5.55
2023-05-21T13:30:41.945Z,5.97
2023-05-21T13:33:08.749Z,9.05
2023-05-21T13:35:35.499Z,6.57
2023-05-21T13:38:02.363Z,6.07
2023-05-21T13:40:29.131Z,5.65
2023-05-21T13:42:55.827Z,5.28
2023-05-21T13:45:25.556Z,5.72
2023-05-21T13:47:52.231Z,5.88
2023-05-21T13:50:18.875Z,7.28
2023-05-21T13:52:46.237Z,5.75
2023-05-21T13:55:13.107Z,5.53
2023-05-21T13:57:40.814Z,4.60
2023-05-21T14:00:09.527Z,5.80
2023-05-21T14:02:36.284Z,5.20
2023-05-21T14:05:03.030Z,5.13
2023-05-21T14:07:29.868Z,5.10
2023-05-21T14:09:56.927Z,5.55
2023-05-21T14:12:23.625Z,4.95
2023-05-21T14:14:50.240Z,5.10
2023-05-21T14:17:16.863Z,4.90
2023-05-21T14:19:43.506Z,5.68
2023-05-21T14:22:10.121Z,4.97
2023-05-21T14:24:36.869Z,5.18
2023-05-21T14:27:03.704Z,5.22
2023-05-21T14:29:30.322Z,4.57
2023-05-21T14:31:57.017Z,4.60
2023-05-21T14:34:23.674Z,5.05
2023-05-21T14:36:50.424Z,5.75
2023-05-21T14:39:17.475Z,13.70
2023-05-21T14:41:44.079Z,5.20
2023-05-21T14:44:10.977Z,4.72
2023-05-21T14:46:39.023Z,4.68
2023-05-21T14:49:06.105Z,4.07
2023-05-21T14:51:33.487Z,4.70
2023-05-21T14:54:00.161Z,4.65
2023-05-21T14:56:28.236Z,4.90
2023-05-21T14:58:55.496Z,4.28
2023-05-21T15:01:22.694Z,4.50
2023-05-21T15:03:49.763Z,4.57
2023-05-21T15:06:16.651Z,4.97
2023-05-21T15:08:43.267Z,5.95
2023-05-21T15:11:10.227Z,4.97
2023-05-21T15:13:37.096Z,5.03
2023-05-21T15:16:04.062Z,4.88
2023-05-21T15:18:30.808Z,4.80
2023-05-21T15:20:58.357Z,4.53
2023-05-21T15:23:25.082Z,4.85
2023-05-21T15:25:51.830Z,5.00
2023-05-21T15:28:18.481Z,5.18
2023-05-21T15:30:45.217Z,4.38
2023-05-21T15:33:11.831Z,4.57
2023-05-21T15:35:38.886Z,4.63
2023-05-21T15:38:06.049Z,4.75
2023-05-21T15:40:33.057Z,4.55
2023-05-21T15:43:00.001Z,4.40
2023-05-21T15:45:26.653Z,4.53
2023-05-21T15:47:53.301Z,6.78
2023-05-21T15:50:20.002Z,8.55
2023-05-21T15:52:46.624Z,5.80
2023-05-21T15:55:14.400Z,5.32
2023-05-21T15:57:41.120Z,4.63
2023-05-21T16:00:09.629Z,4.68
2023-05-21T16:02:36.722Z,4.38
2023-05-21T16:05:03.661Z,6.03
2023-05-21T16:07:30.307Z,5.35
2023-05-21T16:09:56.965Z,5.13
2023-05-21T16:12:23.564Z,4.32
2023-05-21T16:14:50.240Z,4.30
2023-05-21T16:17:17.594Z,4.35
2023-05-21T16:19:44.223Z,5.05
2023-05-21T16:22:11.091Z,4.97
2023-05-21T16:24:38.292Z,5.30
2023-05-21T16:27:05.276Z,4.63
2023-05-21T16:29:32.150Z,5.00
2023-05-21T16:31:58.918Z,4.85
2023-05-21T16:34:25.878Z,4.97
2023-05-21T16:36:52.568Z,4.75
2023-05-21T16:39:19.209Z,4.80
2023-05-21T16:41:45.852Z,4.75
2023-05-21T16:44:12.557Z,5.22
2023-05-21T16:46:39.179Z,4.38
2023-05-21T16:49:05.892Z,5.03
2023-05-21T16:51:32.623Z,4.63
2023-05-21T16:53:59.995Z,4.85
2023-05-21T16:56:27.725Z,5.00
2023-05-21T16:58:54.380Z,4.82
2023-05-21T17:01:21.058Z,5.30
2023-05-21T17:03:47.990Z,5.63
2023-05-21T17:06:15.103Z,4.75
2023-05-21T17:08:42.801Z,5.18
2023-05-21T17:11:09.597Z,4.53
2023-05-21T17:13:36.236Z,4.35
2023-05-21T17:16:02.953Z,4.97
2023-05-21T17:18:29.618Z,4.75
2023-05-21T17:20:56.607Z,4.97
2023-05-21T17:23:23.399Z,4.90
2023-05-21T17:25:50.145Z,6.60
2023-05-21T17:28:16.741Z,6.18
2023-05-21T17:30:43.396Z,6.03
2023-05-21T17:33:10.658Z,5.40
2023-05-21T17:35:37.864Z,6.00
2023-05-21T17:38:04.702Z,5.13
2023-05-21T17:40:31.328Z,5.13
2023-05-21T17:42:57.989Z,5.32
2023-05-21T17:45:24.642Z,5.30
2023-05-21T17:47:51.403Z,5.30
2023-05-21T17:50:18.152Z,5.28
2023-05-21T17:52:44.872Z,5.40
2023-05-21T17:55:11.623Z,5.65
2023-05-21T17:57:38.302Z,5.32
2023-05-21T18:00:06.900Z,5.53
2023-05-21T18:02:33.634Z,4.97
2023-05-21T18:05:00.299Z,6.97
2023-05-21T18:07:27.009Z,5.10
2023-05-21T18:09:53.661Z,5.22
2023-05-21T18:12:20.357Z,5.35
2023-05-21T18:14:47.167Z,5.22
2023-05-21T18:17:13.793Z,5.38
2023-05-21T18:19:40.727Z,5.15
2023-05-21T18:22:08.189Z,5.43
2023-05-21T18:24:36.554Z,5.40
2023-05-21T18:27:04.082Z,4.95
2023-05-21T18:29:38.151Z,5.07
2023-05-21T18:32:08.110Z,5.18
2023-05-21T18:34:48.573Z,5.50
2023-05-21T18:37:30.213Z,5.13
2023-05-21T18:39:59.827Z,5.65
2023-05-21T18:42:31.333Z,5.22
2023-05-21T18:45:06.192Z,5.60
2023-05-21T18:47:33.161Z,5.28
2023-05-21T18:50:00.469Z,5.30
2023-05-21T18:52:27.407Z,5.30
2023-05-21T18:54:54.882Z,5.93
2023-05-21T18:57:21.698Z,5.53
2023-05-21T18:59:48.699Z,5.70
2023-05-21T19:02:17.005Z,6.05
2023-05-21T19:04:46.772Z,19.30
2023-05-21T19:07:25.652Z,8.50
2023-05-21T19:09:53.290Z,6.43
2023-05-21T19:12:31.839Z,6.43
2023-05-21T19:14:59.143Z,6.10
2023-05-21T19:17:26.171Z,6.07
2023-05-21T19:19:56.220Z,5.82
2023-05-21T19:22:27.245Z,6.43
2023-05-21T19:24:54.537Z,6.07
2023-05-21T19:27:21.729Z,5.63
2023-05-21T19:29:48.649Z,5.83
2023-05-21T19:32:18.945Z,7.23
2023-05-21T19:34:45.524Z,6.70
2023-05-21T19:37:12.308Z,7.00
2023-05-21T19:39:43.435Z,6.30
2023-05-21T19:42:10.532Z,6.10
2023-05-21T19:44:40.546Z,7.00
2023-05-21T19:47:07.644Z,6.57
2023-05-21T19:49:34.446Z,6.77
2023-05-21T19:52:02.292Z,6.73
2023-05-21T19:54:29.126Z,7.60
2023-05-21T19:56:55.727Z,7.23
2023-05-21T19:59:22.824Z,7.83
2023-05-21T20:01:49.714Z,8.07
2023-05-21T20:04:16.497Z,7.73
2023-05-21T20:06:43.318Z,7.33
2023-05-21T20:09:12.184Z,7.40
2023-05-21T20:11:38.817Z,7.07
2023-05-21T20:14:05.488Z,6.93
2023-05-21T20:16:32.158Z,6.83
2023-05-21T20:19:01.146Z,7.80
2023-05-21T20:21:31.658Z,7.47
2023-05-21T20:23:58.372Z,7.87
2023-05-21T20:26:26.416Z,9.47
2023-05-21T20:28:53.210Z,9.80
2023-05-21T20:31:20.585Z,7.67
2023-05-21T20:33:53.569Z,7.33
2023-05-21T20:36:21.413Z,7.40
2023-05-21T20:38:48.467Z,7.40
2023-05-21T20:41:15.167Z,7.90
2023-05-21T20:43:45.488Z,7.67
2023-05-21T20:46:12.253Z,7.30
2023-05-21T20:48:38.951Z,7.27
2023-05-21T20:51:05.733Z,7.70
2023-05-21T20:53:32.384Z,7.10
2023-05-21T20:56:01.725Z,7.20
2023-05-21T20:58:29.133Z,7.30
2023-05-21T21:00:55.827Z,6.90
2023-05-21T21:03:22.504Z,7.07
2023-05-21T21:05:49.235Z,7.00
2023-05-21T21:08:16.397Z,7.10
2023-05-21T21:10:47.016Z,7.03
2023-05-21T21:13:14.797Z,7.13
2023-05-21T21:15:41.562Z,6.73
2023-05-21T21:18:08.293Z,7.20
2023-05-21T21:20:34.969Z,6.67
2023-05-21T21:23:01.819Z,7.23
2023-05-21T21:25:28.634Z,7.20
